Asherton, Texas
Current Conditions -  °F | °C
As of 1:15 PM on Thursday 23 Oct 2014 (Local Time) from KCZT Reporting Station
Overcast Overcast  
Wind Chill: 79°   Ceiling: 8500
Heat Index: 80°   Visibility: 10mi
Dew Point: 61°   Wind: 5mph
Humidity: 54%   Direction: 130°SE
Pressure: 30.12"   Gusts: NA
Location:  28.44°N, 99.76°W
Report Text: KCZT 231815Z AUTO 13004KT 10SM SCT040 SCT080 OVC085 26/16 A3012 RMK AO2
Loading
Personal Weather Stations






























Interactive Weather Map
Tropical Storm Tracking
New forecast layout! Learn more

10-Day Weather Forecast

Advertisements
Track Severe Weather on mobile